Terminal Aerodrome Forecast
Issued by NWS Shreveport, LA

Home | Current Version | Previous Version | Text Only | Print | Product List | Glossary On
Versions: 1 2 3 4 5 6 7 8 9 10 11 12 13 14 15 16 17 18 19
041
FTUS44 KSHV 180526
TAFGGG
TAF
KGGG 180526Z 1806/1906 02005KT P6SM VCSH OVC015
      TEMPO 1806/1810 3SM -TSRA BR OVC005CB
     FM181000 02006KT 5SM -TSRA BR OVC005CB
     FM181600 03006KT 5SM -SHRA BR OVC008
     FM182000 02003KT 5SM -SHRA BR OVC010
     FM190000 03003KT P6SM VCSH OVC015=

USA.gov is the U.S. government's official web portal to all federal, state and local government web resources and services.